createdAt,value
2023-04-06T00:01:06.758Z,100601.50
2023-04-06T00:03:34.728Z,100731.25
2023-04-06T00:06:02.768Z,100634.13
2023-04-06T00:08:30.749Z,100740.03
2023-04-06T00:11:00.059Z,100726.81
2023-04-06T00:13:28.058Z,100731.19
2023-04-06T00:15:56.139Z,100726.78
2023-04-06T00:18:24.448Z,100684.41
2023-04-06T00:20:52.492Z,100718.03
2023-04-06T00:23:20.630Z,100699.41
2023-04-06T00:25:48.601Z,100685.31
2023-04-06T00:28:18.159Z,100714.44
2023-04-06T00:30:46.258Z,100702.09
2023-04-06T00:33:14.325Z,100712.72
2023-04-06T00:35:42.427Z,100692.34
2023-04-06T00:38:10.424Z,100709.16
2023-04-06T00:40:40.478Z,100391.38
2023-04-06T00:43:09.921Z,100709.88
2023-04-06T00:45:40.791Z,100690.53
2023-04-06T00:48:09.445Z,100701.97
2023-04-06T00:50:37.759Z,100701.97
2023-04-06T00:53:06.134Z,100700.19
2023-04-06T00:55:35.415Z,100671.97
2023-04-06T00:58:03.408Z,100689.69
2023-04-06T01:00:36.828Z,100692.34
2023-04-06T01:03:07.921Z,100653.50
2023-04-06T01:05:43.187Z,100680.09
2023-04-06T01:08:18.961Z,100642.03
2023-04-06T01:10:47.861Z,100629.66
2023-04-06T01:13:28.228Z,100660.47
2023-04-06T01:16:01.268Z,100662.25
2023-04-06T01:18:49.727Z,100633.97
2023-04-06T01:21:21.441Z,100661.28
2023-04-06T01:24:26.361Z,100645.38
2023-04-06T01:27:13.390Z,100676.25
2023-04-06T01:30:03.081Z,100627.72
2023-04-06T01:33:00.444Z,100640.03
2023-04-06T01:35:43.548Z,100658.63
2023-04-06T01:38:15.823Z,100654.22
2023-04-06T01:40:46.636Z,100656.84
2023-04-06T01:43:15.671Z,100641.06
2023-04-06T01:46:09.782Z,100651.66
2023-04-06T01:48:41.490Z,100636.63
2023-04-06T01:51:19.191Z,100648.81
2023-04-06T01:54:12.930Z,100651.41
2023-04-06T01:57:00.950Z,100595.88
2023-04-06T01:59:54.868Z,100653.19
2023-04-06T02:02:29.074Z,100645.31
2023-04-06T02:05:08.528Z,100647.97
2023-04-06T02:07:37.676Z,100628.56
2023-04-06T02:10:12.801Z,100615.28
2023-04-06T02:12:42.530Z,100647.03
2023-04-06T02:15:15.462Z,100644.38
2023-04-06T02:17:44.696Z,100652.28
2023-04-06T02:20:13.005Z,100642.53
2023-04-06T02:22:41.216Z,100600.28
2023-04-06T02:25:10.072Z,100587.84
2023-04-06T02:27:38.141Z,100639.13
2023-04-06T02:30:09.644Z,100639.16
2023-04-06T02:32:37.977Z,100615.25
2023-04-06T02:35:07.066Z,100642.47
2023-04-06T02:37:36.429Z,100648.56
2023-04-06T02:40:04.929Z,100582.44
2023-04-06T02:42:33.813Z,100632.69
2023-04-06T02:45:01.902Z,100630.16
2023-04-06T02:47:36.155Z,100622.94
2023-04-06T02:50:05.519Z,100503.09
2023-04-06T02:52:36.642Z,100612.38
2023-04-06T02:55:06.066Z,100586.69
2023-04-06T02:57:34.038Z,100589.41
2023-04-06T03:00:02.096Z,100577.91
2023-04-06T03:02:39.878Z,100638.88
2023-04-06T03:05:11.653Z,100635.34
2023-04-06T03:07:43.391Z,100630.22
2023-04-06T03:10:18.107Z,100632.56
2023-04-06T03:12:48.006Z,100633.53
2023-04-06T03:15:23.261Z,100635.13
2023-04-06T03:18:02.234Z,100633.50
2023-04-06T03:20:38.848Z,100628.28
2023-04-06T03:23:06.986Z,100634.47
2023-04-06T03:25:40.546Z,100625.72
2023-04-06T03:28:11.022Z,100589.50
2023-04-06T03:30:48.581Z,100616.91
2023-04-06T03:33:21.800Z,100607.41
2023-04-06T03:35:55.005Z,100618.00
2023-04-06T03:38:25.947Z,100621.44
2023-04-06T03:40:54.844Z,100607.28
2023-04-06T03:43:26.613Z,100620.56
2023-04-06T03:45:55.049Z,100628.50
2023-04-06T03:48:24.408Z,100613.44
2023-04-06T03:50:52.307Z,100620.53
2023-04-06T03:53:20.255Z,100593.22
2023-04-06T03:55:48.150Z,100626.56
2023-04-06T03:58:16.234Z,100610.66
2023-04-06T04:00:44.177Z,100626.50
2023-04-06T04:03:12.206Z,100625.44
2023-04-06T04:05:41.646Z,100620.06
2023-04-06T04:08:10.485Z,100635.91
2023-04-06T04:10:38.419Z,100634.06
2023-04-06T04:13:06.346Z,100586.38
2023-04-06T04:15:34.454Z,100641.13
2023-04-06T04:18:02.500Z,100640.16
2023-04-06T04:20:30.663Z,100641.97
2023-04-06T04:22:59.925Z,100560.75
2023-04-06T04:25:30.836Z,100612.88
2023-04-06T04:27:58.809Z,100642.97
2023-04-06T04:30:26.772Z,100631.59
2023-04-06T04:32:54.943Z,100633.34
2023-04-06T04:35:24.918Z,100636.78
2023-04-06T04:37:53.068Z,100639.47
2023-04-06T04:40:22.514Z,100634.19
2023-04-06T04:42:59.487Z,100614.91
2023-04-06T04:45:33.557Z,100574.16
2023-04-06T04:48:09.793Z,100579.53
2023-04-06T04:50:49.351Z,100638.69
2023-04-06T04:53:19.001Z,100639.81
2023-04-06T04:55:49.197Z,100560.22
2023-04-06T04:58:19.896Z,100633.47
2023-04-06T05:00:59.784Z,100642.13
2023-04-06T05:03:29.189Z,100632.38
2023-04-06T05:06:03.806Z,100558.22
2023-04-06T05:08:35.765Z,100636.78
2023-04-06T05:11:05.526Z,100638.41
2023-04-06T05:13:40.998Z,100638.56
2023-04-06T05:16:14.977Z,100628.91
2023-04-06T05:18:43.141Z,100584.81
2023-04-06T05:21:12.651Z,100602.63
2023-04-06T05:24:03.033Z,100620.34
2023-04-06T05:26:34.580Z,100597.53
2023-04-06T05:29:08.985Z,100635.56
2023-04-06T05:31:39.362Z,100617.06
2023-04-06T05:34:07.533Z,100625.94
2023-04-06T05:36:38.381Z,100620.75
2023-04-06T05:39:15.423Z,100615.47
2023-04-06T05:41:51.971Z,100620.72
2023-04-06T05:44:31.187Z,100622.38
2023-04-06T05:47:08.352Z,100619.91
2023-04-06T05:49:38.597Z,100621.66
2023-04-06T05:52:11.838Z,100629.66
2023-04-06T05:54:41.209Z,100447.25
2023-04-06T05:57:10.574Z,100605.91
2023-04-06T05:59:38.950Z,100631.50
2023-04-06T06:02:07.780Z,100628.97
2023-04-06T06:04:40.916Z,100626.50
2023-04-06T06:07:08.972Z,100594.00
2023-04-06T06:09:45.429Z,100627.63
2023-04-06T06:12:22.875Z,100633.72
2023-04-06T06:14:51.964Z,100631.03
2023-04-06T06:17:21.215Z,100624.94
2023-04-06T06:19:50.025Z,100625.88
2023-04-06T06:22:18.299Z,100626.78
2023-04-06T06:24:48.479Z,100628.56
2023-04-06T06:27:19.459Z,100572.13
2023-04-06T06:29:50.621Z,100600.31
2023-04-06T06:32:20.317Z,100626.72
2023-04-06T06:34:52.087Z,100623.09
2023-04-06T06:37:21.031Z,100631.88
2023-04-06T06:39:50.031Z,100572.81
2023-04-06T06:42:18.841Z,100614.13
2023-04-06T06:45:14.675Z,100634.34
2023-04-06T06:47:43.232Z,100630.75
2023-04-06T06:50:13.022Z,100564.78
2023-04-06T06:52:42.266Z,100535.66
2023-04-06T06:55:11.990Z,100621.94
2023-04-06T06:57:39.951Z,100607.69
2023-04-06T07:00:12.910Z,100616.25
2023-04-06T07:02:43.748Z,100608.97
2023-04-06T07:05:24.252Z,100531.44
2023-04-06T07:07:57.262Z,100612.19
2023-04-06T07:10:25.710Z,100606.78
2023-04-06T07:12:53.813Z,100622.56
2023-04-06T07:15:21.888Z,100619.84
2023-04-06T07:17:53.377Z,100620.41
2023-04-06T07:20:21.418Z,100593.84
2023-04-06T07:22:49.552Z,100600.94
2023-04-06T07:25:17.573Z,100616.31
2023-04-06T07:27:45.597Z,100531.28
2023-04-06T07:30:14.129Z,100619.59
2023-04-06T07:32:42.207Z,100620.50
2023-04-06T07:35:12.201Z,100621.72
2023-04-06T07:37:40.325Z,100613.31
2023-04-06T07:40:10.376Z,100606.19
2023-04-06T07:42:39.113Z,100609.19
2023-04-06T07:45:12.169Z,100606.63
2023-04-06T07:47:40.315Z,100614.31
2023-04-06T07:50:09.574Z,100608.09
2023-04-06T07:52:38.902Z,100612.47
2023-04-06T07:55:08.058Z,100489.75
2023-04-06T07:57:36.026Z,100608.13
2023-04-06T08:00:04.763Z,100608.13
2023-04-06T08:02:40.292Z,100604.75
2023-04-06T08:05:09.098Z,100588.22
2023-04-06T08:07:38.859Z,100603.94
2023-04-06T08:10:07.268Z,100596.22
2023-04-06T08:12:35.926Z,100596.63
2023-04-06T08:15:05.476Z,100553.25
2023-04-06T08:17:35.096Z,100574.63
2023-04-06T08:20:04.318Z,100578.59
2023-04-06T08:22:32.246Z,100587.34
2023-04-06T08:25:01.498Z,100589.31
2023-04-06T08:27:29.488Z,100584.59
2023-04-06T08:29:57.517Z,100581.63
2023-04-06T08:32:25.651Z,100574.44
2023-04-06T08:34:55.938Z,100553.63
2023-04-06T08:37:23.672Z,100578.22
2023-04-06T08:39:51.645Z,100570.31
2023-04-06T08:42:23.934Z,100579.03
2023-04-06T08:44:53.298Z,100575.41
2023-04-06T08:47:24.531Z,100567.88
2023-04-06T08:49:53.219Z,100568.31
2023-04-06T08:52:21.807Z,100561.97
2023-04-06T08:54:49.740Z,100568.00
2023-04-06T08:57:18.627Z,100558.06
2023-04-06T08:59:48.446Z,100559.84
2023-04-06T09:02:20.304Z,100548.25
2023-04-06T09:04:50.929Z,100554.44
2023-04-06T09:07:19.018Z,100541.22
2023-04-06T09:09:49.649Z,100558.38
2023-04-06T09:12:27.925Z,100547.16
2023-04-06T09:14:58.889Z,100552.09
2023-04-06T09:17:28.920Z,100553.78
2023-04-06T09:19:57.315Z,100553.53
2023-04-06T09:22:27.971Z,100547.75
2023-04-06T09:24:56.383Z,100544.09
2023-04-06T09:27:33.022Z,100548.84
2023-04-06T09:30:14.733Z,100546.16
2023-04-06T09:32:50.700Z,100546.59
2023-04-06T09:35:21.014Z,100548.34
2023-04-06T09:37:49.803Z,100436.13
2023-04-06T09:40:18.465Z,100503.63
2023-04-06T09:42:48.401Z,100520.97
2023-04-06T09:45:17.974Z,100550.50
2023-04-06T09:47:47.690Z,100537.00
2023-04-06T09:50:17.318Z,100537.44
2023-04-06T09:52:50.497Z,100535.97
2023-04-06T09:55:26.199Z,100529.38
2023-04-06T09:58:00.237Z,100537.66
2023-04-06T10:00:32.838Z,100534.75
2023-04-06T10:03:09.301Z,100538.63
2023-04-06T10:05:43.697Z,100501.53
2023-04-06T10:08:12.646Z,100526.75
2023-04-06T10:10:40.674Z,100531.63
2023-04-06T10:13:12.069Z,100508.84
2023-04-06T10:15:41.710Z,100528.91
2023-04-06T10:18:10.997Z,100513.22
2023-04-06T10:20:44.333Z,100469.59
2023-04-06T10:23:17.289Z,100518.53
2023-04-06T10:25:56.551Z,100525.84
2023-04-06T10:28:25.828Z,100498.72
2023-04-06T10:31:01.450Z,100500.41
2023-04-06T10:33:31.295Z,100518.34
2023-04-06T10:35:59.505Z,100511.47
2023-04-06T10:38:41.142Z,100508.38
2023-04-06T10:41:11.600Z,100512.41
2023-04-06T10:43:41.351Z,100506.63
2023-04-06T10:46:13.101Z,100505.66
2023-04-06T10:48:42.251Z,100504.84
2023-04-06T10:51:11.790Z,100487.38
2023-04-06T10:53:39.878Z,100501.75
2023-04-06T10:56:12.858Z,100455.41
2023-04-06T10:58:45.770Z,100484.19
2023-04-06T11:01:17.400Z,100480.44
2023-04-06T11:03:46.624Z,100484.00
2023-04-06T11:06:20.673Z,100488.00
2023-04-06T11:08:48.782Z,100485.78
2023-04-06T11:11:19.528Z,100483.63
2023-04-06T11:13:49.177Z,100489.28
2023-04-06T11:16:20.586Z,100482.00
2023-04-06T11:18:53.441Z,100470.44
2023-04-06T11:21:21.996Z,100460.28
2023-04-06T11:23:49.994Z,100477.19
2023-04-06T11:26:18.140Z,100472.97
2023-04-06T11:28:46.349Z,100477.78
2023-04-06T11:31:14.387Z,100466.06
2023-04-06T11:33:43.779Z,100458.09
2023-04-06T11:38:41.443Z,100358.53
2023-04-06T11:41:09.468Z,100455.44
2023-04-06T11:43:37.577Z,100452.06
2023-04-06T11:46:07.679Z,100445.91
2023-04-06T11:48:48.073Z,100439.56
2023-04-06T11:51:23.638Z,100452.44
2023-04-06T11:53:51.869Z,100448.53
2023-04-06T11:56:27.568Z,100443.56
2023-04-06T11:58:57.750Z,100437.41
2023-04-06T12:01:26.322Z,100422.72
2023-04-06T12:03:56.086Z,100442.69
2023-04-06T12:06:24.999Z,100435.06
2023-04-06T12:08:52.978Z,100424.94
2023-04-06T12:11:22.810Z,100403.78
2023-04-06T12:13:51.168Z,100423.13
2023-04-06T12:16:20.216Z,100431.19
2023-04-06T12:18:48.466Z,100442.75
2023-04-06T12:21:17.807Z,100410.16
2023-04-06T12:23:45.718Z,100392.31
2023-04-06T12:26:13.610Z,100441.00
2023-04-06T12:28:41.732Z,100438.16
2023-04-06T12:31:16.172Z,100434.63
2023-04-06T12:33:45.925Z,100431.00
2023-04-06T12:36:14.661Z,100428.00
2023-04-06T12:38:46.680Z,100434.03
2023-04-06T12:41:14.694Z,100410.19
2023-04-06T12:43:43.593Z,100421.03
2023-04-06T12:46:12.397Z,100426.03
2023-04-06T12:48:40.833Z,100408.44
2023-04-06T12:51:09.160Z,100391.44
2023-04-06T12:53:38.129Z,100413.94
2023-04-06T12:56:14.320Z,100417.00
2023-04-06T12:58:43.137Z,100408.50
2023-04-06T13:01:11.733Z,100419.19
2023-04-06T13:03:39.814Z,100316.63
2023-04-06T13:06:09.261Z,100402.09
2023-04-06T13:08:38.232Z,100408.00
2023-04-06T13:11:09.817Z,100408.28
2023-04-06T13:13:38.441Z,100401.75
2023-04-06T13:16:08.921Z,100313.50
2023-04-06T13:18:39.502Z,100383.28
2023-04-06T13:21:08.124Z,100377.53
2023-04-06T13:23:36.677Z,100391.56
2023-04-06T13:26:07.753Z,100367.56
2023-04-06T13:28:39.688Z,100377.47
2023-04-06T13:31:08.105Z,100382.88
2023-04-06T13:33:36.410Z,100376.88
2023-04-06T13:36:05.400Z,100369.16
2023-04-06T13:38:34.591Z,100376.66
2023-04-06T13:41:02.572Z,100377.00
2023-04-06T13:43:31.863Z,100374.31
2023-04-06T13:46:01.763Z,100366.25
2023-04-06T13:48:29.745Z,100367.88
2023-04-06T13:50:57.720Z,100365.25
2023-04-06T13:53:25.494Z,100312.34
2023-04-06T13:55:56.280Z,100336.31
2023-04-06T13:58:24.383Z,100350.81
2023-04-06T14:00:53.653Z,100353.66
2023-04-06T14:03:22.277Z,100354.69
2023-04-06T14:05:50.347Z,100354.91
2023-04-06T14:08:18.179Z,100279.19
2023-04-06T14:10:46.109Z,100350.84
2023-04-06T14:13:13.923Z,100346.84
2023-04-06T14:15:41.837Z,100329.03
2023-04-06T14:18:11.418Z,100345.75
2023-04-06T14:20:39.204Z,100345.59
2023-04-06T14:23:07.201Z,100346.88
2023-04-06T14:25:35.881Z,100344.97
2023-04-06T14:28:04.218Z,100334.88
2023-04-06T14:30:32.601Z,100340.09
2023-04-06T14:33:00.753Z,100338.69
2023-04-06T14:35:31.658Z,100339.09
2023-04-06T14:38:00.012Z,100338.00
2023-04-06T14:40:27.882Z,100333.41
2023-04-06T14:42:56.691Z,100335.38
2023-04-06T14:45:24.535Z,100333.72
2023-04-06T14:47:52.425Z,100331.88
2023-04-06T14:50:20.202Z,100328.56
2023-04-06T14:52:49.502Z,100321.59
2023-04-06T14:55:17.418Z,100324.81
2023-04-06T14:57:45.273Z,100323.50
2023-04-06T15:00:14.382Z,100297.16
2023-04-06T15:02:44.198Z,100316.06
2023-04-06T15:05:12.659Z,100307.72
2023-04-06T15:07:40.520Z,100314.38
2023-04-06T15:10:12.364Z,100215.25
2023-04-06T15:12:40.336Z,100316.34
2023-04-06T15:15:09.059Z,100317.06
2023-04-06T15:17:36.902Z,100286.91
2023-04-06T15:20:05.519Z,100313.81
2023-04-06T15:22:33.453Z,100314.91
2023-04-06T15:25:02.341Z,100321.19
2023-04-06T15:27:31.644Z,100316.34
2023-04-06T15:30:00.595Z,100301.09
2023-04-06T15:32:28.690Z,100294.81
2023-04-06T15:34:58.069Z,100311.84
2023-04-06T15:37:25.939Z,100316.97
2023-04-06T15:39:53.924Z,100308.28
2023-04-06T15:42:21.741Z,100300.78
2023-04-06T15:44:50.953Z,100279.88
2023-04-06T15:47:18.754Z,100316.13
2023-04-06T15:49:46.659Z,100305.91
2023-04-06T15:52:14.482Z,100289.09
2023-04-06T15:54:42.359Z,100306.59
2023-04-06T15:57:10.312Z,100310.97
2023-04-06T15:59:38.077Z,100257.28
2023-04-06T16:02:07.533Z,100300.94
2023-04-06T16:04:35.622Z,100308.81
2023-04-06T16:07:03.631Z,100264.22
2023-04-06T16:09:31.485Z,100303.81
2023-04-06T16:11:59.469Z,100296.34
2023-04-06T16:14:27.352Z,100274.94
2023-04-06T16:16:55.307Z,100282.09
2023-04-06T16:19:24.587Z,100309.28
2023-04-06T16:21:52.309Z,100296.94
2023-04-06T16:24:20.418Z,100293.88
2023-04-06T16:26:49.404Z,100287.22
2023-04-06T16:29:18.048Z,100272.09
2023-04-06T16:31:47.888Z,100297.38
2023-04-06T16:34:15.930Z,100296.72
2023-04-06T16:36:45.146Z,100278.66
2023-04-06T16:39:13.153Z,100294.47
2023-04-06T16:41:40.976Z,100292.94
2023-04-06T16:44:09.270Z,100294.19
2023-04-06T16:46:38.335Z,100278.81
2023-04-06T16:49:06.965Z,100222.28
2023-04-06T16:51:34.779Z,100290.41
2023-04-06T16:54:04.184Z,100295.09
2023-04-06T16:56:33.561Z,100287.00
2023-04-06T16:59:01.445Z,100295.19
2023-04-06T17:01:30.199Z,100298.25
2023-04-06T17:03:58.512Z,100296.22
2023-04-06T17:06:27.725Z,100296.47
2023-04-06T17:08:55.730Z,100292.22
2023-04-06T17:11:48.547Z,100287.56
2023-04-06T17:14:12.997Z,100287.97
2023-04-06T17:16:40.930Z,100281.66
2023-04-06T17:19:08.925Z,100292.66
2023-04-06T17:21:36.954Z,100296.31
2023-04-06T17:24:05.064Z,100304.00
2023-04-06T17:26:34.460Z,100267.16
2023-04-06T17:29:02.380Z,100289.66
2023-04-06T17:31:30.323Z,100310.13
2023-04-06T17:33:58.659Z,100301.16
2023-04-06T17:36:27.868Z,100303.94
2023-04-06T17:38:55.815Z,100280.09
2023-04-06T17:41:24.155Z,100313.38
2023-04-06T17:43:53.347Z,100305.91
2023-04-06T17:46:21.595Z,100297.31
2023-04-06T17:48:50.805Z,100317.59
2023-04-06T17:51:19.443Z,100304.97
2023-04-06T17:53:47.828Z,100320.66
2023-04-06T17:56:15.703Z,100301.97
2023-04-06T17:58:43.559Z,100324.97
2023-04-06T18:01:12.975Z,100325.91
2023-04-06T18:03:41.179Z,100323.91
2023-04-06T18:06:16.679Z,100317.09
2023-04-06T18:08:44.687Z,100330.28
2023-04-06T18:11:17.043Z,100330.38
2023-04-06T18:13:44.991Z,100332.28
2023-04-06T18:16:14.602Z,100330.00
2023-04-06T18:18:42.551Z,100331.38
2023-04-06T18:21:10.380Z,100334.31
2023-04-06T18:23:38.577Z,100340.72
2023-04-06T18:26:07.421Z,100331.31
2023-04-06T18:28:35.490Z,100346.59
2023-04-06T18:31:03.389Z,100341.72
2023-04-06T18:33:33.830Z,100350.88
2023-04-06T18:36:01.620Z,100334.56
2023-04-06T18:38:29.524Z,100342.63
2023-04-06T18:40:57.775Z,100347.97
2023-04-06T18:43:26.244Z,100363.00
2023-04-06T18:45:54.248Z,100349.00
2023-04-06T18:48:22.232Z,100339.81
2023-04-06T18:50:54.878Z,100360.69
2023-04-06T18:53:22.825Z,100361.56
2023-04-06T18:55:51.476Z,100367.16
2023-04-06T18:58:19.367Z,100359.81
2023-04-06T19:00:47.233Z,100376.78
2023-04-06T19:03:15.395Z,100331.56
2023-04-06T19:05:44.334Z,100370.63
2023-04-06T19:08:13.661Z,100378.63
2023-04-06T19:10:41.595Z,100354.56
2023-04-06T19:13:09.969Z,100381.78
2023-04-06T19:15:41.001Z,100368.59
2023-04-06T19:18:08.920Z,100380.50
2023-04-06T19:20:36.818Z,100384.16
2023-04-06T19:23:04.860Z,100379.81
2023-04-06T19:25:34.284Z,100381.91
2023-04-06T19:28:02.171Z,100353.25
2023-04-06T19:30:29.986Z,100350.88
2023-04-06T19:32:57.975Z,100388.31
2023-04-06T19:35:25.761Z,100380.28
2023-04-06T19:37:53.848Z,100369.94
2023-04-06T19:40:21.681Z,100322.16
2023-04-06T19:42:50.952Z,100382.94
2023-04-06T19:45:18.883Z,100363.78
2023-04-06T19:47:46.719Z,100386.63
2023-04-06T19:50:15.450Z,100363.97
2023-04-06T19:52:43.796Z,100353.00
2023-04-06T19:55:11.667Z,100382.22
2023-04-06T19:57:39.664Z,100374.22
2023-04-06T20:00:10.987Z,100374.03
2023-04-06T20:02:39.928Z,100348.41
2023-04-06T20:05:08.311Z,100384.59
2023-04-06T20:07:37.804Z,100357.56
2023-04-06T20:10:07.913Z,100379.47
2023-04-06T20:12:36.129Z,100350.66
2023-04-06T20:15:04.533Z,100266.84
2023-04-06T20:17:33.849Z,100377.75
2023-04-06T20:20:01.732Z,100376.19
2023-04-06T20:22:29.603Z,100287.78
2023-04-06T20:24:57.437Z,100364.22
2023-04-06T20:27:25.570Z,100366.22
2023-04-06T20:29:53.574Z,100374.91
2023-04-06T20:32:21.857Z,100374.00
2023-04-06T20:34:52.618Z,100242.13
2023-04-06T20:37:21.378Z,100376.75
2023-04-06T20:39:49.374Z,100352.34
2023-04-06T20:42:17.947Z,100373.72
2023-04-06T20:44:46.795Z,100383.59
2023-04-06T20:47:14.874Z,100380.31
2023-04-06T20:49:43.188Z,100375.13
2023-04-06T20:52:13.061Z,100368.91
2023-04-06T20:54:40.946Z,100372.34
2023-04-06T20:57:08.915Z,100359.91
2023-04-06T20:59:37.694Z,100348.88
2023-04-06T21:02:05.772Z,100362.22
2023-04-06T21:04:35.281Z,100378.34
2023-04-06T21:07:04.698Z,100362.66
2023-04-06T21:09:36.061Z,100368.88
2023-04-06T21:12:04.082Z,100372.63
2023-04-06T21:14:32.075Z,100373.34
2023-04-06T21:17:00.741Z,100372.59
2023-04-06T21:19:29.258Z,100347.84
2023-04-06T21:21:57.255Z,100369.56
2023-04-06T21:24:25.782Z,100366.81
2023-04-06T21:26:55.162Z,100321.41
2023-04-06T21:29:23.136Z,100373.19
2023-04-06T21:31:50.996Z,100265.72
2023-04-06T21:34:19.100Z,100344.44
2023-04-06T21:36:47.078Z,100354.84
2023-04-06T21:39:14.944Z,100334.91
2023-04-06T21:41:42.808Z,100336.72
2023-04-06T21:44:11.966Z,100337.69
2023-04-06T21:46:39.911Z,100354.53
2023-04-06T21:49:07.879Z,100358.66
2023-04-06T21:51:35.991Z,100363.84
2023-04-06T21:54:03.823Z,100323.66
2023-04-06T21:56:31.763Z,100371.72
2023-04-06T21:58:59.825Z,100364.91
2023-04-06T22:01:29.499Z,100357.25
2023-04-06T22:03:57.782Z,100364.34
2023-04-06T22:06:26.013Z,100345.94
2023-04-06T22:08:53.885Z,100354.00
2023-04-06T22:11:21.848Z,100361.88
2023-04-06T22:13:49.819Z,100355.66
2023-04-06T22:16:18.564Z,100361.03
2023-04-06T22:18:47.813Z,100333.19
2023-04-06T22:21:15.743Z,100366.59
2023-04-06T22:23:43.832Z,100362.38
2023-04-06T22:26:12.664Z,100362.63
2023-04-06T22:28:40.650Z,100356.13
2023-04-06T22:31:08.466Z,100357.84
2023-04-06T22:33:36.346Z,100358.50
2023-04-06T22:36:06.205Z,100363.94
2023-04-06T22:38:34.162Z,100357.69
2023-04-06T22:41:02.013Z,100362.09
2023-04-06T22:43:29.827Z,100369.25
2023-04-06T22:45:57.750Z,100356.41
2023-04-06T22:48:25.770Z,100355.56
2023-04-06T22:50:53.845Z,100371.47
2023-04-06T22:53:22.986Z,100371.25
2023-04-06T22:55:50.838Z,100374.81
2023-04-06T22:58:18.821Z,100360.16
2023-04-06T23:00:46.683Z,100376.88
2023-04-06T23:03:14.707Z,100372.41
2023-04-06T23:05:42.774Z,100374.22
2023-04-06T23:08:10.826Z,100362.38
2023-04-06T23:10:42.052Z,100372.16
2023-04-06T23:13:10.085Z,100370.19
2023-04-06T23:15:38.031Z,100373.56
2023-04-06T23:18:06.189Z,100370.03
2023-04-06T23:20:34.113Z,100366.47
2023-04-06T23:23:01.972Z,100366.56
2023-04-06T23:25:29.795Z,100364.00
2023-04-06T23:27:58.960Z,100351.88
2023-04-06T23:30:26.798Z,100341.94
2023-04-06T23:32:54.642Z,100362.97
2023-04-06T23:35:22.509Z,100362.13
2023-04-06T23:37:50.374Z,100358.50
2023-04-06T23:40:18.437Z,100355.06
2023-04-06T23:42:46.228Z,100362.31
2023-04-06T23:45:15.693Z,100351.75
2023-04-06T23:47:43.550Z,100356.22
2023-04-06T23:50:11.937Z,100356.69
2023-04-06T23:52:39.713Z,100367.41
2023-04-06T23:55:08.472Z,100355.94
2023-04-06T23:57:36.407Z,100305.25
